sensor_id;sensor_type;location;lat;lon;timestamp;pressure;altitude;pressure_sealevel;temperature
66180;BMP280;52986;44.028;20.466;2023-04-15T00:02:16;97200.31;;;7.55
66180;BMP280;52986;44.028;20.466;2023-04-15T00:04:46;97197.88;;;7.48
66180;BMP280;52986;44.028;20.466;2023-04-15T00:07:11;97198.41;;;7.55
66180;BMP280;52986;44.028;20.466;2023-04-15T00:09:37;97197.16;;;7.47
66180;BMP280;52986;44.028;20.466;2023-04-15T00:12:03;97195.22;;;7.48
66180;BMP280;52986;44.028;20.466;2023-04-15T00:14:29;97185.75;;;7.47
66180;BMP280;52986;44.028;20.466;2023-04-15T00:16:55;97191.28;;;7.52
66180;BMP280;52986;44.028;20.466;2023-04-15T00:19:22;97192.19;;;7.58
66180;BMP280;52986;44.028;20.466;2023-04-15T00:21:48;97189.31;;;7.66
66180;BMP280;52986;44.028;20.466;2023-04-15T00:24:13;97195.53;;;7.72
66180;BMP280;52986;44.028;20.466;2023-04-15T00:26:39;97202.06;;;7.71
66180;BMP280;52986;44.028;20.466;2023-04-15T00:29:04;97201.00;;;7.68
66180;BMP280;52986;44.028;20.466;2023-04-15T00:31:30;97204.66;;;7.61
66180;BMP280;52986;44.028;20.466;2023-04-15T00:33:56;97221.63;;;7.55
66180;BMP280;52986;44.028;20.466;2023-04-15T00:36:22;97224.31;;;7.55
66180;BMP280;52986;44.028;20.466;2023-04-15T00:38:48;97212.97;;;7.42
66180;BMP280;52986;44.028;20.466;2023-04-15T00:41:14;97212.81;;;7.45
66180;BMP280;52986;44.028;20.466;2023-04-15T00:43:39;97212.69;;;7.49
66180;BMP280;52986;44.028;20.466;2023-04-15T00:46:05;97218.41;;;7.60
66180;BMP280;52986;44.028;20.466;2023-04-15T00:48:31;97226.66;;;7.53
66180;BMP280;52986;44.028;20.466;2023-04-15T00:50:57;97232.34;;;7.42
66180;BMP280;52986;44.028;20.466;2023-04-15T00:53:23;97239.28;;;7.40
66180;BMP280;52986;44.028;20.466;2023-04-15T00:55:48;97239.94;;;7.31
66180;BMP280;52986;44.028;20.466;2023-04-15T00:58:14;97242.41;;;7.25
66180;BMP280;52986;44.028;20.466;2023-04-15T01:00:41;97245.94;;;7.22
66180;BMP280;52986;44.028;20.466;2023-04-15T01:03:07;97241.81;;;7.21
66180;BMP280;52986;44.028;20.466;2023-04-15T01:05:33;97238.16;;;7.28
66180;BMP280;52986;44.028;20.466;2023-04-15T01:07:59;97249.28;;;7.36
66180;BMP280;52986;44.028;20.466;2023-04-15T01:10:24;97237.91;;;7.35
66180;BMP280;52986;44.028;20.466;2023-04-15T01:12:49;97233.84;;;7.43
66180;BMP280;52986;44.028;20.466;2023-04-15T01:15:15;97230.53;;;7.39
66180;BMP280;52986;44.028;20.466;2023-04-15T01:17:41;97232.25;;;7.46
66180;BMP280;52986;44.028;20.466;2023-04-15T01:20:07;97238.06;;;7.53
66180;BMP280;52986;44.028;20.466;2023-04-15T01:22:35;97232.03;;;7.62
66180;BMP280;52986;44.028;20.466;2023-04-15T01:25:07;97236.09;;;7.67
66180;BMP280;52986;44.028;20.466;2023-04-15T01:27:34;97229.16;;;7.69
66180;BMP280;52986;44.028;20.466;2023-04-15T01:30:01;97232.41;;;7.73
66180;BMP280;52986;44.028;20.466;2023-04-15T01:32:29;97235.97;;;7.70
66180;BMP280;52986;44.028;20.466;2023-04-15T01:34:55;97236.09;;;7.67
66180;BMP280;52986;44.028;20.466;2023-04-15T01:37:20;97236.75;;;7.58
66180;BMP280;52986;44.028;20.466;2023-04-15T01:39:46;97232.91;;;7.59
66180;BMP280;52986;44.028;20.466;2023-04-15T01:42:11;97241.91;;;7.52
66180;BMP280;52986;44.028;20.466;2023-04-15T01:44:37;97237.66;;;7.42
66180;BMP280;52986;44.028;20.466;2023-04-15T01:47:02;97241.03;;;7.34
66180;BMP280;52986;44.028;20.466;2023-04-15T01:49:33;97237.28;;;7.31
66180;BMP280;52986;44.028;20.466;2023-04-15T01:51:59;97237.63;;;7.20
66180;BMP280;52986;44.028;20.466;2023-04-15T01:54:25;97233.25;;;7.14
66180;BMP280;52986;44.028;20.466;2023-04-15T01:56:51;97238.75;;;7.10
66180;BMP280;52986;44.028;20.466;2023-04-15T01:59:17;97235.00;;;7.08
66180;BMP280;52986;44.028;20.466;2023-04-15T02:01:43;97234.47;;;7.00
66180;BMP280;52986;44.028;20.466;2023-04-15T02:04:09;97231.53;;;6.98
66180;BMP280;52986;44.028;20.466;2023-04-15T02:06:43;97237.38;;;6.93
66180;BMP280;52986;44.028;20.466;2023-04-15T02:09:09;97236.63;;;6.92
66180;BMP280;52986;44.028;20.466;2023-04-15T02:11:34;97231.06;;;6.87
66180;BMP280;52986;44.028;20.466;2023-04-15T02:14:01;97237.03;;;6.78
66180;BMP280;52986;44.028;20.466;2023-04-15T02:16:28;97239.63;;;6.56
66180;BMP280;52986;44.028;20.466;2023-04-15T02:18:53;97235.44;;;6.42
66180;BMP280;52986;44.028;20.466;2023-04-15T02:21:19;97233.41;;;6.34
66180;BMP280;52986;44.028;20.466;2023-04-15T02:23:44;97231.06;;;6.36
66180;BMP280;52986;44.028;20.466;2023-04-15T02:26:11;97231.50;;;6.34
66180;BMP280;52986;44.028;20.466;2023-04-15T02:28:37;97230.31;;;6.35
66180;BMP280;52986;44.028;20.466;2023-04-15T02:31:06;97234.91;;;6.35
66180;BMP280;52986;44.028;20.466;2023-04-15T02:33:32;97231.41;;;6.38
66180;BMP280;52986;44.028;20.466;2023-04-15T02:35:57;97226.72;;;6.42
66180;BMP280;52986;44.028;20.466;2023-04-15T02:38:23;97231.72;;;6.53
66180;BMP280;52986;44.028;20.466;2023-04-15T02:40:49;97231.31;;;6.54
66180;BMP280;52986;44.028;20.466;2023-04-15T02:43:15;97236.63;;;6.54
66180;BMP280;52986;44.028;20.466;2023-04-15T02:45:42;97234.06;;;6.51
66180;BMP280;52986;44.028;20.466;2023-04-15T02:48:08;97236.31;;;6.52
66180;BMP280;52986;44.028;20.466;2023-04-15T02:50:33;97246.63;;;6.50
66180;BMP280;52986;44.028;20.466;2023-04-15T02:52:59;97236.09;;;6.47
66180;BMP280;52986;44.028;20.466;2023-04-15T02:55:25;97248.22;;;6.60
66180;BMP280;52986;44.028;20.466;2023-04-15T02:57:51;97244.19;;;6.56
66180;BMP280;52986;44.028;20.466;2023-04-15T03:00:16;97237.16;;;6.49
66180;BMP280;52986;44.028;20.466;2023-04-15T03:02:42;97236.81;;;6.47
66180;BMP280;52986;44.028;20.466;2023-04-15T03:05:13;97241.84;;;6.45
66180;BMP280;52986;44.028;20.466;2023-04-15T03:07:38;97243.44;;;6.42
66180;BMP280;52986;44.028;20.466;2023-04-15T03:10:07;97250.66;;;6.42
66180;BMP280;52986;44.028;20.466;2023-04-15T03:12:33;97251.41;;;6.42
66180;BMP280;52986;44.028;20.466;2023-04-15T03:14:58;97253.97;;;6.46
66180;BMP280;52986;44.028;20.466;2023-04-15T03:17:26;97254.28;;;6.48
66180;BMP280;52986;44.028;20.466;2023-04-15T03:19:51;97269.81;;;6.50
66180;BMP280;52986;44.028;20.466;2023-04-15T03:22:16;97267.16;;;6.50
66180;BMP280;52986;44.028;20.466;2023-04-15T03:24:42;97264.41;;;6.53
66180;BMP280;52986;44.028;20.466;2023-04-15T03:27:07;97264.41;;;6.53
66180;BMP280;52986;44.028;20.466;2023-04-15T03:29:33;97257.16;;;6.66
66180;BMP280;52986;44.028;20.466;2023-04-15T03:31:59;97267.19;;;6.62
66180;BMP280;52986;44.028;20.466;2023-04-15T03:34:24;97261.34;;;6.67
66180;BMP280;52986;44.028;20.466;2023-04-15T03:36:49;97266.88;;;6.73
66180;BMP280;52986;44.028;20.466;2023-04-15T03:39:15;97273.91;;;6.80
66180;BMP280;52986;44.028;20.466;2023-04-15T03:41:41;97268.03;;;6.85
66180;BMP280;52986;44.028;20.466;2023-04-15T03:44:06;97274.53;;;6.84
66180;BMP280;52986;44.028;20.466;2023-04-15T03:46:32;97276.44;;;6.83
66180;BMP280;52986;44.028;20.466;2023-04-15T03:48:57;97279.31;;;6.89
66180;BMP280;52986;44.028;20.466;2023-04-15T03:51:23;97287.28;;;6.89
66180;BMP280;52986;44.028;20.466;2023-04-15T03:53:48;97290.19;;;6.94
66180;BMP280;52986;44.028;20.466;2023-04-15T03:56:13;97289.00;;;6.95
66180;BMP280;52986;44.028;20.466;2023-04-15T03:58:39;97289.94;;;6.89
66180;BMP280;52986;44.028;20.466;2023-04-15T04:01:04;97292.53;;;6.92
66180;BMP280;52986;44.028;20.466;2023-04-15T04:03:30;97300.41;;;6.83
66180;BMP280;52986;44.028;20.466;2023-04-15T04:05:55;97304.66;;;6.81
66180;BMP280;52986;44.028;20.466;2023-04-15T04:08:21;97306.06;;;6.85
66180;BMP280;52986;44.028;20.466;2023-04-15T04:10:46;97310.63;;;6.85
66180;BMP280;52986;44.028;20.466;2023-04-15T04:13:11;97313.81;;;6.92
66180;BMP280;52986;44.028;20.466;2023-04-15T04:15:37;97316.06;;;6.94
66180;BMP280;52986;44.028;20.466;2023-04-15T04:18:02;97310.50;;;7.01
66180;BMP280;52986;44.028;20.466;2023-04-15T04:20:28;97316.56;;;7.14
66180;BMP280;52986;44.028;20.466;2023-04-15T04:22:53;97319.03;;;7.21
66180;BMP280;52986;44.028;20.466;2023-04-15T04:25:19;97315.38;;;7.28
66180;BMP280;52986;44.028;20.466;2023-04-15T04:27:44;97319.41;;;7.32
66180;BMP280;52986;44.028;20.466;2023-04-15T04:30:10;97320.47;;;7.35
66180;BMP280;52986;44.028;20.466;2023-04-15T04:32:36;97327.09;;;7.30
66180;BMP280;52986;44.028;20.466;2023-04-15T04:35:03;97332.94;;;7.38
66180;BMP280;52986;44.028;20.466;2023-04-15T04:37:28;97329.00;;;7.43
66180;BMP280;52986;44.028;20.466;2023-04-15T04:39:54;97330.88;;;7.55
66180;BMP280;52986;44.028;20.466;2023-04-15T04:42:19;97326.19;;;7.59
66180;BMP280;52986;44.028;20.466;2023-04-15T04:44:45;97335.66;;;7.60
66180;BMP280;52986;44.028;20.466;2023-04-15T04:47:10;97337.06;;;7.65
66180;BMP280;52986;44.028;20.466;2023-04-15T04:49:35;97329.84;;;7.74
66180;BMP280;52986;44.028;20.466;2023-04-15T04:52:01;97339.75;;;7.86
66180;BMP280;52986;44.028;20.466;2023-04-15T04:54:27;97347.06;;;7.95
66180;BMP280;52986;44.028;20.466;2023-04-15T04:56:52;97339.13;;;8.04
66180;BMP280;52986;44.028;20.466;2023-04-15T04:59:18;97349.44;;;8.15
66180;BMP280;52986;44.028;20.466;2023-04-15T05:01:43;97348.19;;;8.29
66180;BMP280;52986;44.028;20.466;2023-04-15T05:04:09;97347.19;;;8.35
66180;BMP280;52986;44.028;20.466;2023-04-15T05:06:34;97343.66;;;8.38
66180;BMP280;52986;44.028;20.466;2023-04-15T05:09:01;97349.19;;;8.44
66180;BMP280;52986;44.028;20.466;2023-04-15T05:11:27;97342.88;;;8.60
66180;BMP280;52986;44.028;20.466;2023-04-15T05:13:53;97340.53;;;8.62
66180;BMP280;52986;44.028;20.466;2023-04-15T05:16:18;97338.19;;;8.64
66180;BMP280;52986;44.028;20.466;2023-04-15T05:18:44;97335.88;;;8.84
66180;BMP280;52986;44.028;20.466;2023-04-15T05:21:10;97332.38;;;9.05
66180;BMP280;52986;44.028;20.466;2023-04-15T05:23:35;97345.09;;;9.51
66180;BMP280;52986;44.028;20.466;2023-04-15T05:26:02;97340.91;;;10.04
66180;BMP280;52986;44.028;20.466;2023-04-15T05:28:27;97338.59;;;10.58
66180;BMP280;52986;44.028;20.466;2023-04-15T05:30:53;97344.78;;;10.73
66180;BMP280;52986;44.028;20.466;2023-04-15T05:33:18;97341.97;;;11.01
66180;BMP280;52986;44.028;20.466;2023-04-15T05:35:44;97340.25;;;11.36
66180;BMP280;52986;44.028;20.466;2023-04-15T05:38:09;97345.25;;;11.67
66180;BMP280;52986;44.028;20.466;2023-04-15T05:40:35;97340.59;;;11.53
66180;BMP280;52986;44.028;20.466;2023-04-15T05:43:01;97346.34;;;11.61
66180;BMP280;52986;44.028;20.466;2023-04-15T05:45:26;97344.19;;;12.03
66180;BMP280;52986;44.028;20.466;2023-04-15T05:47:51;97351.00;;;12.63
66180;BMP280;52986;44.028;20.466;2023-04-15T05:50:18;97350.03;;;12.81
66180;BMP280;52986;44.028;20.466;2023-04-15T05:52:45;97341.78;;;13.05
66180;BMP280;52986;44.028;20.466;2023-04-15T05:55:10;97338.47;;;12.95
66180;BMP280;52986;44.028;20.466;2023-04-15T05:57:36;97341.88;;;12.75
66180;BMP280;52986;44.028;20.466;2023-04-15T06:00:03;97346.56;;;12.60
66180;BMP280;52986;44.028;20.466;2023-04-15T06:02:29;97340.44;;;12.60
66180;BMP280;52986;44.028;20.466;2023-04-15T06:04:56;97336.28;;;12.44
66180;BMP280;52986;44.028;20.466;2023-04-15T06:07:22;97340.66;;;12.56
66180;BMP280;52986;44.028;20.466;2023-04-15T06:09:47;97339.91;;;12.41
66180;BMP280;52986;44.028;20.466;2023-04-15T06:12:13;97350.72;;;12.61
66180;BMP280;52986;44.028;20.466;2023-04-15T06:14:39;97358.94;;;12.72
66180;BMP280;52986;44.028;20.466;2023-04-15T06:17:05;97363.88;;;13.09
66180;BMP280;52986;44.028;20.466;2023-04-15T06:19:31;97354.53;;;13.71
66180;BMP280;52986;44.028;20.466;2023-04-15T06:21:57;97358.25;;;14.31
66180;BMP280;52986;44.028;20.466;2023-04-15T06:24:22;97348.19;;;14.68
66180;BMP280;52986;44.028;20.466;2023-04-15T06:26:48;97356.81;;;14.67
66180;BMP280;52986;44.028;20.466;2023-04-15T06:29:13;97339.50;;;14.85
66180;BMP280;52986;44.028;20.466;2023-04-15T06:31:39;97337.13;;;14.55
66180;BMP280;52986;44.028;20.466;2023-04-15T06:34:04;97336.06;;;14.41
66180;BMP280;52986;44.028;20.466;2023-04-15T06:36:29;97345.00;;;15.13
66180;BMP280;52986;44.028;20.466;2023-04-15T06:38:55;97344.16;;;15.66
66180;BMP280;52986;44.028;20.466;2023-04-15T06:41:21;97348.59;;;16.47
66180;BMP280;52986;44.028;20.466;2023-04-15T06:43:46;97343.06;;;16.92
66180;BMP280;52986;44.028;20.466;2023-04-15T06:46:12;97354.41;;;16.73
66180;BMP280;52986;44.028;20.466;2023-04-15T06:48:37;97349.13;;;16.18
66180;BMP280;52986;44.028;20.466;2023-04-15T06:51:03;97341.75;;;17.09
66180;BMP280;52986;44.028;20.466;2023-04-15T06:53:28;97361.47;;;18.17
66180;BMP280;52986;44.028;20.466;2023-04-15T06:55:54;97358.41;;;18.74
66180;BMP280;52986;44.028;20.466;2023-04-15T06:58:19;97351.41;;;19.03
66180;BMP280;52986;44.028;20.466;2023-04-15T07:00:46;97349.59;;;19.62
66180;BMP280;52986;44.028;20.466;2023-04-15T07:03:12;97339.47;;;19.76
66180;BMP280;52986;44.028;20.466;2023-04-15T07:05:38;97342.47;;;20.70
66180;BMP280;52986;44.028;20.466;2023-04-15T07:08:04;97345.81;;;20.76
66180;BMP280;52986;44.028;20.466;2023-04-15T07:10:31;97345.91;;;21.80
66180;BMP280;52986;44.028;20.466;2023-04-15T07:12:57;97343.06;;;21.86
66180;BMP280;52986;44.028;20.466;2023-04-15T07:15:22;97337.47;;;21.71
66180;BMP280;52986;44.028;20.466;2023-04-15T07:17:48;97328.38;;;22.61
66180;BMP280;52986;44.028;20.466;2023-04-15T07:20:13;97332.47;;;22.90
66180;BMP280;52986;44.028;20.466;2023-04-15T07:22:39;97343.31;;;23.57
66180;BMP280;52986;44.028;20.466;2023-04-15T07:25:05;97323.81;;;23.60
66180;BMP280;52986;44.028;20.466;2023-04-15T07:27:31;97332.91;;;23.63
66180;BMP280;52986;44.028;20.466;2023-04-15T07:29:56;97340.53;;;23.19
66180;BMP280;52986;44.028;20.466;2023-04-15T07:32:22;97338.56;;;22.60
66180;BMP280;52986;44.028;20.466;2023-04-15T07:34:47;97354.09;;;21.80
66180;BMP280;52986;44.028;20.466;2023-04-15T07:37:13;97355.09;;;22.19
66180;BMP280;52986;44.028;20.466;2023-04-15T07:39:39;97358.53;;;22.48
66180;BMP280;52986;44.028;20.466;2023-04-15T07:42:04;97348.44;;;24.46
66180;BMP280;52986;44.028;20.466;2023-04-15T07:44:30;97351.16;;;24.46
66180;BMP280;52986;44.028;20.466;2023-04-15T07:46:56;97341.84;;;25.38
66180;BMP280;52986;44.028;20.466;2023-04-15T07:49:21;97355.84;;;25.50
66180;BMP280;52986;44.028;20.466;2023-04-15T07:51:48;97354.53;;;26.45
66180;BMP280;52986;44.028;20.466;2023-04-15T07:54:14;97346.56;;;25.63
66180;BMP280;52986;44.028;20.466;2023-04-15T07:56:39;97345.44;;;24.99
66180;BMP280;52986;44.028;20.466;2023-04-15T07:59:05;97356.63;;;25.68
66180;BMP280;52986;44.028;20.466;2023-04-15T08:01:31;97355.00;;;26.16
66180;BMP280;52986;44.028;20.466;2023-04-15T08:03:57;97375.03;;;26.44
66180;BMP280;52986;44.028;20.466;2023-04-15T08:06:26;97344.44;;;25.36
66180;BMP280;52986;44.028;20.466;2023-04-15T08:08:51;97359.50;;;23.93
66180;BMP280;52986;44.028;20.466;2023-04-15T08:11:18;97361.00;;;22.38
66180;BMP280;52986;44.028;20.466;2023-04-15T08:13:45;97360.81;;;23.38
66180;BMP280;52986;44.028;20.466;2023-04-15T08:16:19;97371.47;;;24.35
66180;BMP280;52986;44.028;20.466;2023-04-15T08:18:54;97372.94;;;24.36
66180;BMP280;52986;44.028;20.466;2023-04-15T08:21:20;97354.19;;;23.11
66180;BMP280;52986;44.028;20.466;2023-04-15T08:23:47;97351.84;;;21.71
66180;BMP280;52986;44.028;20.466;2023-04-15T08:26:13;97349.38;;;20.58
66180;BMP280;52986;44.028;20.466;2023-04-15T08:28:40;97345.28;;;19.67
66180;BMP280;52986;44.028;20.466;2023-04-15T08:31:05;97352.84;;;19.04
66180;BMP280;52986;44.028;20.466;2023-04-15T08:33:31;97362.75;;;18.83
66180;BMP280;52986;44.028;20.466;2023-04-15T08:35:57;97360.34;;;19.17
66180;BMP280;52986;44.028;20.466;2023-04-15T08:38:22;97352.53;;;19.45
66180;BMP280;52986;44.028;20.466;2023-04-15T08:40:48;97348.69;;;19.03
66180;BMP280;52986;44.028;20.466;2023-04-15T08:43:26;97347.84;;;19.46
66180;BMP280;52986;44.028;20.466;2023-04-15T08:45:53;97360.38;;;19.81
66180;BMP280;52986;44.028;20.466;2023-04-15T08:48:20;97381.47;;;22.16
66180;BMP280;52986;44.028;20.466;2023-04-15T08:50:47;97375.56;;;24.04
66180;BMP280;52986;44.028;20.466;2023-04-15T08:53:13;97381.03;;;26.33
66180;BMP280;52986;44.028;20.466;2023-04-15T08:55:42;97388.19;;;27.26
66180;BMP280;52986;44.028;20.466;2023-04-15T08:58:12;97393.59;;;27.33
66180;BMP280;52986;44.028;20.466;2023-04-15T09:00:38;97389.06;;;28.03
66180;BMP280;52986;44.028;20.466;2023-04-15T09:03:05;97407.41;;;26.63
66180;BMP280;52986;44.028;20.466;2023-04-15T09:05:34;97362.31;;;25.62
66180;BMP280;52986;44.028;20.466;2023-04-15T09:08:01;97361.13;;;23.96
66180;BMP280;52986;44.028;20.466;2023-04-15T09:10:28;97361.41;;;21.85
66180;BMP280;52986;44.028;20.466;2023-04-15T09:12:54;97394.03;;;23.73
66180;BMP280;52986;44.028;20.466;2023-04-15T09:15:20;97393.44;;;25.08
66180;BMP280;52986;44.028;20.466;2023-04-15T09:17:45;97400.03;;;26.21
66180;BMP280;52986;44.028;20.466;2023-04-15T09:20:15;97396.63;;;27.37
66180;BMP280;52986;44.028;20.466;2023-04-15T09:22:45;97369.88;;;27.48
66180;BMP280;52986;44.028;20.466;2023-04-15T09:27:58;97409.34;;;26.96
66180;BMP280;52986;44.028;20.466;2023-04-15T09:30:24;97400.03;;;26.21
66180;BMP280;52986;44.028;20.466;2023-04-15T09:32:52;97407.31;;;25.10
66180;BMP280;52986;44.028;20.466;2023-04-15T09:35:19;97403.53;;;27.75
66180;BMP280;52986;44.028;20.466;2023-04-15T09:37:45;97395.78;;;27.45
66180;BMP280;52986;44.028;20.466;2023-04-15T09:40:17;97409.94;;;27.77
66180;BMP280;52986;44.028;20.466;2023-04-15T09:42:55;97365.22;;;24.90
66180;BMP280;52986;44.028;20.466;2023-04-15T09:45:22;97359.88;;;23.59
66180;BMP280;52986;44.028;20.466;2023-04-15T09:47:47;97370.44;;;22.29
66180;BMP280;52986;44.028;20.466;2023-04-15T09:50:15;97363.88;;;21.00
66180;BMP280;52986;44.028;20.466;2023-04-15T09:52:42;97356.78;;;20.57
66180;BMP280;52986;44.028;20.466;2023-04-15T09:55:08;97349.84;;;20.70
66180;BMP280;52986;44.028;20.466;2023-04-15T09:57:34;97352.91;;;21.26
66180;BMP280;52986;44.028;20.466;2023-04-15T10:00:02;97350.19;;;21.26
66180;BMP280;52986;44.028;20.466;2023-04-15T10:02:28;97352.84;;;21.19
66180;BMP280;52986;44.028;20.466;2023-04-15T10:04:55;97350.28;;;21.21
66180;BMP280;52986;44.028;20.466;2023-04-15T10:07:21;97345.88;;;20.97
66180;BMP280;52986;44.028;20.466;2023-04-15T10:09:49;97349.94;;;20.90
66180;BMP280;52986;44.028;20.466;2023-04-15T10:12:16;97355.53;;;20.45
66180;BMP280;52986;44.028;20.466;2023-04-15T10:14:43;97360.31;;;19.86
66180;BMP280;52986;44.028;20.466;2023-04-15T10:17:10;97348.16;;;19.24
66180;BMP280;52986;44.028;20.466;2023-04-15T10:19:36;97355.09;;;20.02
66180;BMP280;52986;44.028;20.466;2023-04-15T10:22:02;97350.66;;;20.44
66180;BMP280;52986;44.028;20.466;2023-04-15T10:24:30;97345.41;;;20.46
66180;BMP280;52986;44.028;20.466;2023-04-15T10:26:56;97351.63;;;21.27
66180;BMP280;52986;44.028;20.466;2023-04-15T10:29:24;97344.84;;;21.21
66180;BMP280;52986;44.028;20.466;2023-04-15T10:31:53;97338.59;;;21.00
66180;BMP280;52986;44.028;20.466;2023-04-15T10:34:19;97340.34;;;19.97
66180;BMP280;52986;44.028;20.466;2023-04-15T10:36:45;97326.72;;;19.39
66180;BMP280;52986;44.028;20.466;2023-04-15T10:42:12;97330.16;;;19.39
66180;BMP280;52986;44.028;20.466;2023-04-15T10:44:43;97339.47;;;20.94
66180;BMP280;52986;44.028;20.466;2023-04-15T10:47:10;97356.44;;;21.55
66180;BMP280;52986;44.028;20.466;2023-04-15T10:49:42;97377.94;;;24.62
66180;BMP280;52986;44.028;20.466;2023-04-15T10:52:09;97385.34;;;26.70
66180;BMP280;52986;44.028;20.466;2023-04-15T10:54:35;97384.81;;;29.31
66180;BMP280;52986;44.028;20.466;2023-04-15T10:59:35;97329.50;;;29.29
66180;BMP280;52986;44.028;20.466;2023-04-15T11:02:03;97332.53;;;25.76
66180;BMP280;52986;44.028;20.466;2023-04-15T11:04:51;97377.16;;;26.01
66180;BMP280;52986;44.028;20.466;2023-04-15T11:12:51;97384.22;;;24.88
66180;BMP280;52986;44.028;20.466;2023-04-15T11:15:32;97379.50;;;28.04
66180;BMP280;52986;44.028;20.466;2023-04-15T11:17:59;97377.56;;;29.05
66180;BMP280;52986;44.028;20.466;2023-04-15T11:20:33;97377.34;;;29.13
66180;BMP280;52986;44.028;20.466;2023-04-15T11:22:59;97368.69;;;30.13
66180;BMP280;52986;44.028;20.466;2023-04-15T11:25:26;97378.28;;;30.12
66180;BMP280;52986;44.028;20.466;2023-04-15T11:27:52;97343.00;;;29.68
66180;BMP280;52986;44.028;20.466;2023-04-15T11:30:23;97329.59;;;26.43
66180;BMP280;52986;44.028;20.466;2023-04-15T11:32:54;97324.53;;;24.79
66180;BMP280;52986;44.028;20.466;2023-04-15T11:35:20;97333.63;;;23.10
66180;BMP280;52986;44.028;20.466;2023-04-15T11:37:47;97318.53;;;23.32
66180;BMP280;52986;44.028;20.466;2023-04-15T11:40:14;97338.00;;;23.05
66180;BMP280;52986;44.028;20.466;2023-04-15T11:42:45;97372.63;;;26.13
66180;BMP280;52986;44.028;20.466;2023-04-15T11:45:13;97368.34;;;28.02
66180;BMP280;52986;44.028;20.466;2023-04-15T11:47:39;97319.31;;;26.16
66180;BMP280;52986;44.028;20.466;2023-04-15T11:50:18;97318.50;;;25.55
66180;BMP280;52986;44.028;20.466;2023-04-15T11:53:02;97313.78;;;24.41
66180;BMP280;52986;44.028;20.466;2023-04-15T11:55:29;97318.16;;;23.43
66180;BMP280;52986;44.028;20.466;2023-04-15T11:58:07;97362.03;;;25.01
66180;BMP280;52986;44.028;20.466;2023-04-15T12:00:34;97346.16;;;26.52
66180;BMP280;52986;44.028;20.466;2023-04-15T12:06:06;97345.16;;;28.15
66180;BMP280;52986;44.028;20.466;2023-04-15T12:11:17;97334.09;;;29.58
66180;BMP280;52986;44.028;20.466;2023-04-15T12:13:44;97330.47;;;28.82
66180;BMP280;52986;44.028;20.466;2023-04-15T12:16:10;97324.63;;;29.39
66180;BMP280;52986;44.028;20.466;2023-04-15T12:18:38;97322.22;;;28.22
66180;BMP280;52986;44.028;20.466;2023-04-15T12:21:09;97329.94;;;26.47
66180;BMP280;52986;44.028;20.466;2023-04-15T12:23:46;97295.94;;;24.64
66180;BMP280;52986;44.028;20.466;2023-04-15T12:26:12;97312.59;;;25.16
66180;BMP280;52986;44.028;20.466;2023-04-15T12:28:39;97309.06;;;25.83
66180;BMP280;52986;44.028;20.466;2023-04-15T12:31:07;97306.09;;;23.84
66180;BMP280;52986;44.028;20.466;2023-04-15T12:33:34;97328.88;;;23.26
66180;BMP280;52986;44.028;20.466;2023-04-15T12:35:59;97327.41;;;22.94
66180;BMP280;52986;44.028;20.466;2023-04-15T12:38:24;97331.66;;;21.95
66180;BMP280;52986;44.028;20.466;2023-04-15T12:40:50;97310.78;;;21.48
66180;BMP280;52986;44.028;20.466;2023-04-15T12:43:15;97315.91;;;21.31
66180;BMP280;52986;44.028;20.466;2023-04-15T12:45:41;97309.31;;;21.26
66180;BMP280;52986;44.028;20.466;2023-04-15T12:48:07;97317.47;;;21.26
66180;BMP280;52986;44.028;20.466;2023-04-15T12:50:34;97302.75;;;20.88
66180;BMP280;52986;44.028;20.466;2023-04-15T12:52:59;97310.66;;;20.65
66180;BMP280;52986;44.028;20.466;2023-04-15T12:55:25;97316.53;;;20.30
66180;BMP280;52986;44.028;20.466;2023-04-15T12:57:50;97323.84;;;20.08
66180;BMP280;52986;44.028;20.466;2023-04-15T13:00:16;97325.28;;;19.83
66180;BMP280;52986;44.028;20.466;2023-04-15T13:02:45;97322.00;;;19.84
66180;BMP280;52986;44.028;20.466;2023-04-15T13:05:10;97328.00;;;19.51
66180;BMP280;52986;44.028;20.466;2023-04-15T13:07:38;97325.03;;;19.68
66180;BMP280;52986;44.028;20.466;2023-04-15T13:10:04;97322.22;;;19.73
66180;BMP280;52986;44.028;20.466;2023-04-15T13:12:30;97316.63;;;19.52
66180;BMP280;52986;44.028;20.466;2023-04-15T13:14:55;97308.19;;;19.56
66180;BMP280;52986;44.028;20.466;2023-04-15T13:17:21;97311.09;;;19.58
66180;BMP280;52986;44.028;20.466;2023-04-15T13:19:46;97318.16;;;19.48
66180;BMP280;52986;44.028;20.466;2023-04-15T13:22:11;97312.16;;;19.36
66180;BMP280;52986;44.028;20.466;2023-04-15T13:24:39;97310.63;;;19.22
66180;BMP280;52986;44.028;20.466;2023-04-15T13:27:04;97318.16;;;19.16
66180;BMP280;52986;44.028;20.466;2023-04-15T13:29:31;97318.22;;;19.10
66180;BMP280;52986;44.028;20.466;2023-04-15T13:31:56;97307.34;;;19.10
66180;BMP280;52986;44.028;20.466;2023-04-15T13:34:22;97320.19;;;19.10
66180;BMP280;52986;44.028;20.466;2023-04-15T13:36:47;97315.06;;;19.25
66180;BMP280;52986;44.028;20.466;2023-04-15T13:39:13;97312.59;;;19.40
66180;BMP280;52986;44.028;20.466;2023-04-15T13:41:39;97310.59;;;19.73
66180;BMP280;52986;44.028;20.466;2023-04-15T13:44:04;97306.25;;;19.83
66180;BMP280;52986;44.028;20.466;2023-04-15T13:46:30;97314.59;;;19.85
66180;BMP280;52986;44.028;20.466;2023-04-15T13:48:55;97302.06;;;19.82
66180;BMP280;52986;44.028;20.466;2023-04-15T13:51:21;97296.50;;;19.61
66180;BMP280;52986;44.028;20.466;2023-04-15T13:53:46;97294.25;;;19.60
66180;BMP280;52986;44.028;20.466;2023-04-15T13:56:12;97294.34;;;19.54
66180;BMP280;52986;44.028;20.466;2023-04-15T13:58:37;97302.59;;;19.48
66180;BMP280;52986;44.028;20.466;2023-04-15T14:01:03;97295.06;;;19.55
66180;BMP280;52986;44.028;20.466;2023-04-15T14:03:29;97287.56;;;19.47
66180;BMP280;52986;44.028;20.466;2023-04-15T14:05:54;97296.81;;;19.07
66180;BMP280;52986;44.028;20.466;2023-04-15T14:08:21;97291.28;;;18.94
66180;BMP280;52986;44.028;20.466;2023-04-15T14:10:47;97286.88;;;18.91
66180;BMP280;52986;44.028;20.466;2023-04-15T14:13:14;97298.84;;;18.82
66180;BMP280;52986;44.028;20.466;2023-04-15T14:15:40;97287.13;;;18.93
66180;BMP280;52986;44.028;20.466;2023-04-15T14:18:06;97286.69;;;18.89